Time;durP1;ratioP1;P1;durP2;ratioP2;P2;SDS_P1;SDS_P2;PMS_P1;PMS_P2;Temp;Humidity;BMP_temperature;BMP_pressure;BME280_temperature;BME280_humidity;BME280_pressure;Samples;Min_cycle;Max_cycle;Signal;HPM_P1;HPM_P2
2023/05/17 00:02:35;;;;;;;25.67;4.25;;;10.10;99.90;;;;;;4980877;28;20165;-80
2023/05/17 00:05:22;;;;;;;26.67;4.00;;;10.10;99.90;;;;;;4993528;28;20042;-79
2023/05/17 00:08:09;;;;;;;29.17;5.15;;;10.10;99.90;;;;;;4981959;28;20539;-79
2023/05/17 00:10:56;;;;;;;23.42;4.13;;;10.10;99.90;;;;;;4994005;28;20048;-79
2023/05/17 00:13:43;;;;;;;21.17;3.78;;;10.20;99.90;;;;;;4993402;28;20042;-80
2023/05/17 00:16:29;;;;;;;19.85;3.67;;;10.20;99.90;;;;;;4994422;28;20089;-79
2023/05/17 00:19:15;;;;;;;18.17;5.15;;;10.10;99.90;;;;;;4994898;28;20096;-79
2023/05/17 00:22:01;;;;;;;16.13;2.75;;;10.10;99.90;;;;;;4979673;28;20045;-79
2023/05/17 00:24:49;;;;;;;14.52;2.72;;;10.10;99.90;;;;;;4994688;28;20045;-80
2023/05/17 00:27:35;;;;;;;15.07;2.33;;;10.00;99.90;;;;;;4994257;28;20549;-80
2023/05/17 00:30:21;;;;;;;15.23;2.42;;;9.90;99.90;;;;;;5012852;28;20050;-79
2023/05/17 00:33:07;;;;;;;20.15;2.80;;;9.90;99.90;;;;;;5011168;28;20494;-80
2023/05/17 00:35:54;;;;;;;17.63;3.42;;;9.80;99.90;;;;;;4982013;28;20046;-81
2023/05/17 00:38:41;;;;;;;17.92;3.15;;;9.80;99.90;;;;;;4980926;28;20068;-80
2023/05/17 00:41:27;;;;;;;12.15;2.97;;;9.80;99.90;;;;;;4966920;28;20058;-80
2023/05/17 00:44:13;;;;;;;10.27;2.20;;;9.80;99.90;;;;;;5010679;28;20053;-81
2023/05/17 00:46:59;;;;;;;12.48;2.30;;;9.70;99.90;;;;;;4993301;28;20084;-81
2023/05/17 00:49:46;;;;;;;10.80;2.65;;;9.80;99.90;;;;;;5010646;28;20445;-80
2023/05/17 00:52:32;;;;;;;18.17;2.75;;;9.70;99.90;;;;;;4992432;28;20053;-80
2023/05/17 00:55:20;;;;;;;20.52;4.57;;;9.70;99.90;;;;;;5011587;28;20046;-80
2023/05/17 00:58:08;;;;;;;11.60;2.58;;;9.70;99.90;;;;;;5011159;28;20049;-81
2023/05/17 01:00:54;;;;;;;18.38;3.03;;;9.60;99.90;;;;;;4990216;28;20050;-79
2023/05/17 01:03:41;;;;;;;19.50;3.42;;;9.60;99.90;;;;;;4995310;28;20054;-79
2023/05/17 01:06:27;;;;;;;12.32;2.13;;;9.60;99.90;;;;;;4993267;28;20056;-79
2023/05/17 01:09:14;;;;;;;10.05;2.22;;;9.60;99.90;;;;;;4992677;28;20128;-80
2023/05/17 01:12:06;;;;;;;11.73;2.58;;;9.50;99.90;;;;;;4993186;28;20057;-79
2023/05/17 01:15:06;;;;;;;15.15;1.95;;;9.50;99.90;;;;;;4993789;28;20050;-79
2023/05/17 01:18:33;;;;;;;14.30;2.47;;;9.50;99.90;;;;;;4994083;28;20053;-79
2023/05/17 01:21:45;;;;;;;13.82;2.35;;;9.50;99.90;;;;;;4993703;28;20149;-80
2023/05/17 01:24:50;;;;;;;16.77;2.80;;;9.40;99.90;;;;;;4992872;28;20046;-79
2023/05/17 01:27:40;;;;;;;12.73;1.52;;;9.40;99.90;;;;;;4979483;28;20054;-79
2023/05/17 01:30:29;;;;;;;13.38;2.08;;;9.40;99.90;;;;;;4966939;28;20093;-79
2023/05/17 01:33:19;;;;;;;15.23;2.40;;;9.40;99.90;;;;;;4992915;28;20498;-80
2023/05/17 01:36:07;;;;;;;17.80;2.30;;;9.40;99.90;;;;;;4992403;28;20089;-79
2023/05/17 01:38:53;;;;;;;19.75;2.88;;;9.50;99.90;;;;;;4979128;28;20061;-79
2023/05/17 01:41:43;;;;;;;14.68;2.40;;;9.50;99.90;;;;;;4992591;28;20153;-80
2023/05/17 01:44:53;;;;;;;18.67;3.13;;;9.50;99.90;;;;;;4991896;28;20481;-79
2023/05/17 01:48:11;;;;;;;15.48;2.17;;;9.50;99.90;;;;;;5009102;28;20160;-79
2023/05/17 01:50:59;;;;;;;17.08;2.47;;;9.40;99.90;;;;;;4946160;28;20058;-80
2023/05/17 01:53:50;;;;;;;21.85;2.60;;;9.50;99.90;;;;;;4978978;28;20402;-80
2023/05/17 01:56:47;;;;;;;15.98;2.58;;;9.50;99.90;;;;;;4995784;28;20136;-80
2023/05/17 01:59:36;;;;;;;21.17;3.75;;;9.50;99.90;;;;;;4991675;28;20049;-79
2023/05/17 02:02:23;;;;;;;14.65;2.42;;;9.50;99.90;;;;;;4991319;28;20402;-79
2023/05/17 02:05:12;;;;;;;11.60;2.47;;;9.50;99.90;;;;;;4992289;28;20133;-79
2023/05/17 02:07:58;;;;;;;14.98;2.83;;;9.50;99.90;;;;;;4991585;28;20140;-80
2023/05/17 02:10:44;;;;;;;11.50;1.80;;;9.50;99.90;;;;;;5011111;28;20046;-80
2023/05/17 02:13:30;;;;;;;18.63;2.13;;;9.40;99.90;;;;;;5009524;28;20049;-79
2023/05/17 02:16:16;;;;;;;14.07;2.47;;;9.40;99.90;;;;;;5009513;28;20053;-79
2023/05/17 02:19:02;;;;;;;12.80;2.03;;;9.30;99.90;;;;;;4995137;28;20057;-79
2023/05/17 02:21:48;;;;;;;13.10;2.15;;;9.30;99.90;;;;;;5009888;28;20112;-79
2023/05/17 02:24:35;;;;;;;17.70;3.28;;;9.20;99.90;;;;;;4992277;28;20689;-79
2023/05/17 02:27:21;;;;;;;15.20;2.17;;;9.10;99.90;;;;;;5010851;28;20096;-78
2023/05/17 02:30:09;;;;;;;17.05;2.38;;;9.10;99.90;;;;;;4979913;28;20417;-78
2023/05/17 02:32:55;;;;;;;12.73;2.20;;;9.10;99.90;;;;;;4993584;28;20056;-80
2023/05/17 02:35:41;;;;;;;9.05;2.03;;;9.00;99.90;;;;;;4996123;28;20060;-80
2023/05/17 02:38:27;;;;;;;12.70;1.92;;;9.00;99.90;;;;;;4995068;28;20053;-79
2023/05/17 02:41:14;;;;;;;14.82;1.52;;;9.00;99.90;;;;;;4995397;28;20188;-78
2023/05/17 02:44:00;;;;;;;16.13;3.10;;;9.00;99.90;;;;;;5013642;28;20058;-79
2023/05/17 02:46:46;;;;;;;13.48;2.53;;;9.00;99.90;;;;;;4996050;28;20049;-79
2023/05/17 02:49:33;;;;;;;10.18;1.60;;;9.10;99.90;;;;;;4995311;28;20061;-79
2023/05/17 02:52:19;;;;;;;16.67;2.03;;;9.10;99.90;;;;;;4982602;28;20057;-79
2023/05/17 02:55:06;;;;;;;10.77;2.60;;;9.10;99.90;;;;;;4988617;28;20506;-78
2023/05/17 02:57:55;;;;;;;13.68;1.90;;;9.10;99.90;;;;;;4993786;28;20046;-79
2023/05/17 03:00:45;;;;;;;11.65;1.95;;;9.10;99.90;;;;;;4963403;28;20045;-79
2023/05/17 03:03:31;;;;;;;9.27;1.60;;;9.10;99.90;;;;;;4963677;28;20050;-79
2023/05/17 03:06:17;;;;;;;14.13;1.98;;;9.10;99.90;;;;;;4976481;28;20050;-79
2023/05/17 03:09:03;;;;;;;10.57;1.55;;;9.10;99.90;;;;;;4994111;28;20162;-79
2023/05/17 03:11:50;;;;;;;12.73;2.63;;;9.10;99.90;;;;;;4962402;28;20081;-79
2023/05/17 03:14:36;;;;;;;6.80;1.05;;;9.10;99.90;;;;;;4962635;28;20096;-79
2023/05/17 03:17:22;;;;;;;15.27;1.95;;;9.10;99.90;;;;;;4993696;28;20046;-79
2023/05/17 03:20:11;;;;;;;10.07;1.88;;;9.00;99.90;;;;;;4958074;28;20513;-79
2023/05/17 03:22:57;;;;;;;11.32;1.58;;;9.00;99.90;;;;;;4993003;28;20050;-80
2023/05/17 03:25:43;;;;;;;11.60;2.15;;;8.90;99.90;;;;;;4975491;28;20142;-78
2023/05/17 03:28:33;;;;;;;12.15;1.90;;;8.80;99.90;;;;;;4975653;28;20407;-80
2023/05/17 03:31:19;;;;;;;11.32;3.15;;;8.80;99.90;;;;;;4993332;28;20042;-79
2023/05/17 03:34:05;;;;;;;8.50;1.60;;;8.80;99.90;;;;;;4992808;28;20151;-79
2023/05/17 03:36:51;;;;;;;11.77;1.60;;;8.80;99.90;;;;;;4992459;28;20739;-79
2023/05/17 03:39:38;;;;;;;12.38;1.88;;;8.80;99.90;;;;;;4961408;28;20053;-80
2023/05/17 03:42:24;;;;;;;15.82;2.35;;;8.80;99.90;;;;;;4993727;28;20042;-80
2023/05/17 03:45:11;;;;;;;9.50;1.52;;;8.80;99.90;;;;;;4962211;28;20670;-79
2023/05/17 03:47:57;;;;;;;11.82;1.92;;;8.80;99.90;;;;;;4992348;28;20038;-80
2023/05/17 03:50:44;;;;;;;9.38;2.17;;;8.80;99.90;;;;;;4974291;28;20090;-78
2023/05/17 03:53:30;;;;;;;13.23;1.90;;;8.80;99.90;;;;;;4993828;28;20383;-80
2023/05/17 03:56:16;;;;;;;15.68;2.05;;;8.80;99.90;;;;;;4999744;28;20058;-79
2023/05/17 03:59:02;;;;;;;9.30;1.90;;;8.80;99.90;;;;;;4993905;28;20104;-79
2023/05/17 04:01:49;;;;;;;11.77;1.75;;;8.80;99.90;;;;;;4981706;28;20524;-79
2023/05/17 04:04:47;;;;;;;10.73;1.45;;;8.80;99.90;;;;;;4997691;28;20227;-79
2023/05/17 04:07:33;;;;;;;9.98;1.63;;;8.80;99.90;;;;;;4984513;28;20140;-79
2023/05/17 04:10:19;;;;;;;6.28;1.23;;;8.80;99.90;;;;;;5011286;28;20057;-79
2023/05/17 04:13:05;;;;;;;14.05;1.58;;;8.80;99.90;;;;;;4994283;28;20089;-79
2023/05/17 04:15:53;;;;;;;11.13;1.77;;;8.80;99.90;;;;;;4980757;28;20546;-79
2023/05/17 04:18:39;;;;;;;8.32;1.92;;;8.80;99.90;;;;;;5009329;28;20784;-80
2023/05/17 04:21:26;;;;;;;13.48;3.35;;;8.80;99.90;;;;;;4996771;28;20053;-80
2023/05/17 04:24:12;;;;;;;15.88;2.03;;;8.90;99.90;;;;;;5011422;28;20057;-80
2023/05/17 04:26:58;;;;;;;14.50;2.17;;;8.80;99.90;;;;;;4980194;28;20068;-79
2023/05/17 04:29:44;;;;;;;9.50;1.73;;;8.90;99.90;;;;;;4993657;28;20058;-79
2023/05/17 04:32:32;;;;;;;12.98;2.33;;;8.90;99.90;;;;;;4980607;28;20046;-79
2023/05/17 04:35:18;;;;;;;16.00;2.88;;;8.90;99.90;;;;;;4997958;28;20100;-79
2023/05/17 04:38:08;;;;;;;7.90;2.17;;;8.90;99.90;;;;;;4981128;28;20132;-79
2023/05/17 04:40:59;;;;;;;13.30;2.10;;;8.90;99.90;;;;;;4992712;28;20445;-79
2023/05/17 04:43:46;;;;;;;14.40;2.03;;;8.90;99.90;;;;;;4994034;28;20053;-79
2023/05/17 04:46:32;;;;;;;12.32;2.20;;;9.00;99.90;;;;;;4980207;28;20054;-80
2023/05/17 04:49:18;;;;;;;17.58;3.13;;;9.00;99.90;;;;;;4994041;28;20375;-80
2023/05/17 04:52:05;;;;;;;17.33;2.80;;;9.00;99.90;;;;;;4994130;28;20058;-80
2023/05/17 04:54:51;;;;;;;12.27;2.55;;;9.10;99.90;;;;;;5010239;28;20054;-78
2023/05/17 04:57:37;;;;;;;14.15;2.60;;;9.10;99.90;;;;;;4990244;28;20089;-78
2023/05/17 05:00:24;;;;;;;14.48;2.55;;;9.20;99.90;;;;;;4975081;28;20085;-79
2023/05/17 05:03:10;;;;;;;15.63;2.67;;;9.20;99.90;;;;;;4974802;28;20107;-79
2023/05/17 05:05:56;;;;;;;19.73;2.67;;;9.20;99.90;;;;;;4973626;28;20090;-78
2023/05/17 05:08:42;;;;;;;19.55;2.55;;;9.20;99.90;;;;;;4991289;28;20491;-78
2023/05/17 05:11:28;;;;;;;18.98;3.72;;;9.20;99.90;;;;;;4974713;28;20054;-79
2023/05/17 05:14:14;;;;;;;17.20;2.92;;;9.20;99.90;;;;;;4974087;28;20050;-80
2023/05/17 05:17:00;;;;;;;15.60;2.15;;;9.10;99.90;;;;;;4992414;28;20089;-78
2023/05/17 05:19:46;;;;;;;13.23;3.10;;;9.10;99.90;;;;;;4992956;28;20046;-78
2023/05/17 05:22:32;;;;;;;13.13;1.90;;;9.10;99.90;;;;;;4974229;28;20054;-79
2023/05/17 05:25:19;;;;;;;13.88;2.72;;;9.00;99.90;;;;;;4992452;28;20054;-79
2023/05/17 05:28:05;;;;;;;17.17;3.00;;;9.00;99.90;;;;;;4991766;28;20418;-78
2023/05/17 05:30:59;;;;;;;11.35;3.47;;;9.00;99.90;;;;;;4977964;28;20049;-79
2023/05/17 05:33:45;;;;;;;16.23;2.60;;;9.00;99.90;;;;;;4989941;28;20116;-79
2023/05/17 05:36:32;;;;;;;13.05;3.00;;;9.00;99.90;;;;;;4991226;28;20046;-80
2023/05/17 05:39:18;;;;;;;18.17;3.13;;;9.10;99.90;;;;;;4973913;28;20050;-80
2023/05/17 05:42:05;;;;;;;15.57;2.47;;;9.20;99.90;;;;;;4974855;28;20485;-80
2023/05/17 05:44:51;;;;;;;19.88;2.05;;;9.30;99.90;;;;;;4991786;28;20050;-78
2023/05/17 05:47:37;;;;;;;16.40;2.78;;;9.30;99.90;;;;;;4990605;28;20050;-79
2023/05/17 05:50:23;;;;;;;17.50;2.50;;;9.30;99.90;;;;;;4990460;28;20063;-79
2023/05/17 05:53:10;;;;;;;19.15;2.47;;;9.40;99.90;;;;;;4974806;28;20108;-79
2023/05/17 05:55:56;;;;;;;11.82;2.28;;;9.50;99.90;;;;;;4973247;28;20058;-79
2023/05/17 05:58:42;;;;;;;12.23;1.90;;;9.60;99.90;;;;;;4992129;28;20098;-79
2023/05/17 06:01:28;;;;;;;13.02;2.20;;;9.80;99.90;;;;;;4958770;28;20054;-80
2023/05/17 06:04:14;;;;;;;13.52;2.78;;;9.90;99.90;;;;;;4990346;28;20065;-79
2023/05/17 06:07:00;;;;;;;10.80;2.00;;;10.00;99.90;;;;;;4958388;28;20062;-78
2023/05/17 06:09:46;;;;;;;15.07;2.83;;;10.00;99.90;;;;;;4995116;28;20185;-79
2023/05/17 06:12:32;;;;;;;19.25;2.97;;;10.40;99.90;;;;;;4976911;28;20097;-79
2023/05/17 06:15:18;;;;;;;15.73;4.35;;;10.60;99.90;;;;;;4994465;28;20099;-79
2023/05/17 06:18:04;;;;;;;15.50;2.47;;;10.60;99.90;;;;;;4993628;28;20050;-78
2023/05/17 06:20:50;;;;;;;13.50;2.67;;;10.50;99.90;;;;;;4964108;28;20058;-79
2023/05/17 06:23:36;;;;;;;14.23;2.40;;;10.30;99.90;;;;;;4994030;28;20442;-78
2023/05/17 06:26:23;;;;;;;20.08;2.15;;;10.40;99.70;;;;;;4975794;28;20462;-79
2023/05/17 06:29:09;;;;;;;13.82;2.45;;;10.40;99.40;;;;;;4993326;28;20046;-79
2023/05/17 06:31:56;;;;;;;15.57;2.13;;;10.60;98.90;;;;;;4976886;28;20148;-80
2023/05/17 06:34:43;;;;;;;10.13;1.88;;;10.80;98.10;;;;;;4995086;28;20047;-79
2023/05/17 06:37:29;;;;;;;10.02;2.15;;;11.00;97.50;;;;;;4976367;28;20069;-80
2023/05/17 06:40:15;;;;;;;13.07;1.85;;;11.00;97.40;;;;;;4975076;28;20093;-80
2023/05/17 06:43:01;;;;;;;11.27;2.85;;;11.10;97.80;;;;;;4976586;28;20062;-79
2023/05/17 06:45:47;;;;;;;15.65;2.20;;;11.10;97.90;;;;;;4993757;28;20042;-79
2023/05/17 06:48:33;;;;;;;17.35;2.55;;;11.00;97.90;;;;;;4976255;28;20132;-79
2023/05/17 06:51:20;;;;;;;10.95;2.40;;;11.10;98.00;;;;;;4993312;28;20054;-79
2023/05/17 06:54:06;;;;;;;13.65;2.25;;;11.20;98.20;;;;;;4994933;28;20055;-79
2023/05/17 06:56:52;;;;;;;11.23;2.17;;;11.20;98.20;;;;;;4987813;28;20521;-79
2023/05/17 06:59:38;;;;;;;15.88;3.03;;;11.20;98.10;;;;;;5013967;28;20041;-80
2023/05/17 07:02:24;;;;;;;20.13;2.58;;;11.10;98.20;;;;;;4983037;28;20042;-80
2023/05/17 07:05:10;;;;;;;16.20;2.28;;;11.20;98.70;;;;;;5013729;28;20054;-80
2023/05/17 07:07:58;;;;;;;10.55;2.38;;;11.10;98.70;;;;;;5012637;28;20490;-78
2023/05/17 07:10:44;;;;;;;15.05;2.50;;;11.10;98.90;;;;;;4995044;28;20060;-80
2023/05/17 07:13:30;;;;;;;17.08;2.92;;;11.00;99.10;;;;;;4995802;28;20061;-79
2023/05/17 07:16:16;;;;;;;17.95;2.75;;;11.00;99.40;;;;;;5013275;28;20049;-80
2023/05/17 07:19:02;;;;;;;12.82;2.28;;;10.90;99.90;;;;;;4980760;28;20581;-77
2023/05/17 07:21:48;;;;;;;22.00;2.88;;;10.90;99.90;;;;;;5013634;28;20406;-80
2023/05/17 07:24:39;;;;;;;14.23;2.80;;;11.00;99.90;;;;;;5014209;28;20058;-79
2023/05/17 07:27:25;;;;;;;14.90;2.45;;;11.30;99.90;;;;;;4995503;28;20049;-79
2023/05/17 07:30:12;;;;;;;13.27;2.65;;;11.50;99.70;;;;;;4982544;28;20038;-80
2023/05/17 07:32:58;;;;;;;15.27;2.95;;;11.70;99.20;;;;;;4996607;28;20058;-79
2023/05/17 07:35:47;;;;;;;9.70;1.75;;;11.80;98.60;;;;;;4995304;28;20387;-79
2023/05/17 07:38:36;;;;;;;11.73;2.10;;;11.90;97.70;;;;;;4982789;28;20554;-80
2023/05/17 07:41:23;;;;;;;13.73;1.90;;;12.00;97.60;;;;;;4981628;28;20188;-80
2023/05/17 07:44:09;;;;;;;9.10;1.83;;;12.10;97.80;;;;;;5013515;28;20093;-79
2023/05/17 07:46:55;;;;;;;10.13;1.83;;;12.20;96.90;;;;;;5011628;28;20054;-80
2023/05/17 07:49:41;;;;;;;9.30;2.35;;;12.10;96.00;;;;;;4980516;28;20045;-79
2023/05/17 07:52:27;;;;;;;31.98;3.88;;;12.30;95.90;;;;;;4980643;28;20058;-79
2023/05/17 07:55:14;;;;;;;9.40;1.77;;;12.50;95.90;;;;;;4998599;28;20050;-79
2023/05/17 07:58:00;;;;;;;6.78;1.60;;;12.70;95.50;;;;;;4978691;28;20145;-80
2023/05/17 08:00:49;;;;;;;14.52;1.90;;;12.50;95.20;;;;;;4974712;28;20547;-80
2023/05/17 08:03:35;;;;;;;14.38;1.60;;;12.40;95.20;;;;;;4948762;28;20053;-79
2023/05/17 08:06:22;;;;;;;15.68;2.67;;;12.20;95.60;;;;;;4949281;28;20457;-80
2023/05/17 08:09:09;;;;;;;11.25;2.50;;;12.00;96.20;;;;;;4961493;28;20050;-79
2023/05/17 08:11:56;;;;;;;11.65;1.80;;;11.90;96.60;;;;;;4977312;28;20074;-80
2023/05/17 08:14:42;;;;;;;14.30;1.92;;;11.90;97.00;;;;;;4975326;28;20411;-80
2023/05/17 08:17:28;;;;;;;8.35;1.73;;;11.90;96.30;;;;;;4991896;28;20407;-80
2023/05/17 08:20:15;;;;;;;10.65;1.55;;;12.00;96.00;;;;;;4990483;28;20054;-80
2023/05/17 08:23:02;;;;;;;13.85;2.05;;;12.10;95.80;;;;;;4963002;28;20047;-79
2023/05/17 08:25:51;;;;;;;13.35;1.88;;;12.60;95.40;;;;;;4978573;28;20053;-80
2023/05/17 08:28:38;;;;;;;13.40;1.85;;;12.70;94.30;;;;;;4961933;28;20061;-79
2023/05/17 08:31:24;;;;;;;8.77;2.00;;;13.00;94.20;;;;;;4974140;28;20089;-80
2023/05/17 08:34:13;;;;;;;7.57;1.88;;;13.50;93.70;;;;;;4991522;28;20054;-80
2023/05/17 08:37:00;;;;;;;7.55;1.90;;;13.60;93.10;;;;;;4977929;28;20140;-80
2023/05/17 08:39:48;;;;;;;6.68;1.60;;;13.70;92.70;;;;;;4976060;28;20387;-80
2023/05/17 08:42:37;;;;;;;10.00;1.75;;;14.00;92.30;;;;;;4961106;28;20089;-81
2023/05/17 08:45:26;;;;;;;10.98;1.92;;;13.70;92.00;;;;;;4959700;28;20455;-80
2023/05/17 08:48:16;;;;;;;7.97;1.45;;;13.40;92.00;;;;;;4991391;28;20054;-79
2023/05/17 08:51:02;;;;;;;13.68;1.98;;;13.50;92.20;;;;;;4961416;28;20129;-79
2023/05/17 08:53:49;;;;;;;8.85;1.98;;;13.60;92.00;;;;;;4962090;28;20124;-80
2023/05/17 08:56:41;;;;;;;9.98;1.80;;;13.60;92.50;;;;;;4983006;28;20426;-80
2023/05/17 08:59:32;;;;;;;7.45;1.40;;;13.40;92.40;;;;;;5011258;28;20148;-80
2023/05/17 09:02:19;;;;;;;9.50;2.33;;;13.30;92.50;;;;;;4981585;28;20097;-81
2023/05/17 09:05:09;;;;;;;11.93;2.08;;;13.20;92.70;;;;;;4993460;28;20058;-80
2023/05/17 09:07:56;;;;;;;11.25;2.08;;;13.10;93.00;;;;;;4966441;28;20138;-80
2023/05/17 09:10:43;;;;;;;9.90;1.73;;;13.30;93.10;;;;;;4993628;28;20057;-78
2023/05/17 09:13:29;;;;;;;9.15;1.58;;;13.20;92.70;;;;;;5011717;28;20228;-80
2023/05/17 09:16:20;;;;;;;7.28;1.60;;;13.30;92.30;;;;;;4992568;28;20066;-79
2023/05/17 09:19:07;;;;;;;11.38;2.20;;;13.40;91.80;;;;;;4992754;28;20444;-79
2023/05/17 09:21:54;;;;;;;7.82;1.65;;;13.50;91.90;;;;;;4980590;28;20421;-78
2023/05/17 09:24:41;;;;;;;8.05;1.63;;;13.80;92.10;;;;;;4993567;28;20050;-79
2023/05/17 09:27:31;;;;;;;10.15;1.75;;;13.90;91.70;;;;;;4992632;28;20092;-81
2023/05/17 09:30:17;;;;;;;9.98;1.90;;;13.90;91.10;;;;;;4996713;28;20053;-80
2023/05/17 09:33:08;;;;;;;14.68;2.47;;;14.00;91.40;;;;;;5010912;28;20049;-80
2023/05/17 09:35:54;;;;;;;11.43;2.20;;;14.20;91.50;;;;;;4992554;28;20141;-78
2023/05/17 09:38:41;;;;;;;10.50;1.70;;;14.40;91.10;;;;;;4979378;28;20073;-78
2023/05/17 09:41:30;;;;;;;12.93;1.85;;;14.80;90.80;;;;;;5010682;28;20053;-80
2023/05/17 09:44:16;;;;;;;9.10;1.42;;;15.20;90.40;;;;;;4992255;28;20132;-79
2023/05/17 09:47:02;;;;;;;7.95;1.80;;;15.20;90.50;;;;;;4979528;28;20088;-80
2023/05/17 09:49:48;;;;;;;12.10;2.10;;;14.80;90.80;;;;;;4979452;28;20050;-79
2023/05/17 09:52:35;;;;;;;6.50;1.70;;;14.50;91.50;;;;;;4992018;28;20170;-80
2023/05/17 09:55:26;;;;;;;9.48;2.20;;;14.30;92.30;;;;;;4979942;28;20498;-78
2023/05/17 09:58:13;;;;;;;12.82;1.52;;;14.40;92.70;;;;;;5008344;28;20057;-79
2023/05/17 10:01:07;;;;;;;10.70;2.15;;;14.70;92.70;;;;;;4993058;28;20410;-80
2023/05/17 10:03:54;;;;;;;25.33;2.88;;;15.10;92.00;;;;;;4993195;28;20058;-79
2023/05/17 10:06:43;;;;;;;13.63;2.85;;;15.20;91.50;;;;;;4992049;28;20081;-78
2023/05/17 10:09:34;;;;;;;11.20;1.75;;;15.00;91.10;;;;;;4992322;28;20502;-77
2023/05/17 10:12:28;;;;;;;10.88;1.73;;;14.90;90.90;;;;;;4964637;28;20053;-80
2023/05/17 10:15:16;;;;;;;10.93;1.80;;;15.20;90.60;;;;;;4991877;28;20579;-80
2023/05/17 10:18:02;;;;;;;11.88;1.65;;;15.40;90.80;;;;;;4991544;28;20050;-78
2023/05/17 10:20:50;;;;;;;9.57;1.90;;;15.20;90.60;;;;;;4993231;28;20525;-80
2023/05/17 10:23:42;;;;;;;13.07;2.50;;;14.80;89.40;;;;;;4992528;28;20112;-79
2023/05/17 10:26:29;;;;;;;12.05;1.80;;;15.00;89.10;;;;;;5008966;28;20474;-79
2023/05/17 10:29:16;;;;;;;11.60;2.10;;;15.40;90.10;;;;;;4992206;28;20060;-79
2023/05/17 10:32:07;;;;;;;8.02;2.03;;;15.70;90.20;;;;;;5009846;28;20136;-79
2023/05/17 10:34:54;;;;;;;10.10;1.77;;;15.90;88.50;;;;;;4965765;28;20061;-79
2023/05/17 10:37:40;;;;;;;7.63;1.52;;;15.90;88.00;;;;;;4992034;28;20057;-82
2023/05/17 10:40:29;;;;;;;12.63;3.30;;;15.80;87.50;;;;;;4992436;28;20112;-84
2023/05/17 10:43:16;;;;;;;10.32;2.28;;;16.00;86.40;;;;;;4991821;28;20084;-84
2023/05/17 10:46:03;;;;;;;8.65;1.35;;;16.20;85.30;;;;;;4991896;28;20136;-82
2023/05/17 10:48:54;;;;;;;11.38;1.80;;;16.20;84.70;;;;;;5009497;28;20054;-82
2023/05/17 10:51:40;;;;;;;10.27;1.63;;;16.00;82.60;;;;;;4991797;28;20042;-80
2023/05/17 10:54:34;;;;;;;6.45;1.67;;;15.90;84.30;;;;;;4994288;28;20465;-82
2023/05/17 10:58:07;;;;;;;9.93;1.98;;;15.80;83.50;;;;;;4995156;28;20050;-78
2023/05/17 11:00:53;;;;;;;9.20;1.85;;;15.70;80.40;;;;;;4990048;28;20052;-80
2023/05/17 11:03:41;;;;;;;68.03;4.80;;;15.90;82.60;;;;;;4997387;28;20527;-81
2023/05/17 11:06:35;;;;;;;7.60;1.23;;;16.90;82.60;;;;;;4995304;28;20049;-82
2023/05/17 11:09:25;;;;;;;9.88;1.63;;;17.20;79.00;;;;;;4995743;28;20056;-78
2023/05/17 11:12:12;;;;;;;6.38;1.23;;;17.30;73.30;;;;;;4994699;28;20053;-78
2023/05/17 11:14:59;;;;;;;7.78;1.88;;;17.00;71.70;;;;;;5013524;28;20056;-80
2023/05/17 11:17:55;;;;;;;7.70;2.13;;;17.00;69.00;;;;;;5012120;28;20086;-80
2023/05/17 11:20:43;;;;;;;57.78;4.72;;;16.80;71.50;;;;;;4995052;28;20387;-83
2023/05/17 11:23:38;;;;;;;20.80;2.83;;;17.20;74.60;;;;;;4995620;28;20046;-85
2023/05/17 11:26:44;;;;;;;9.00;2.20;;;17.60;71.90;;;;;;4995412;28;20053;-81
2023/05/17 11:29:31;;;;;;;29.15;3.15;;;17.70;69.40;;;;;;5012515;28;20054;-81
2023/05/17 11:32:17;;;;;;;13.02;2.75;;;18.10;72.00;;;;;;4995304;28;20062;-83
2023/05/17 11:35:04;;;;;;;8.68;1.85;;;19.00;72.50;;;;;;4982800;28;20100;-78
2023/05/17 11:38:10;;;;;;;12.38;1.85;;;18.50;65.40;;;;;;4995380;28;20136;-81
2023/05/17 11:40:56;;;;;;;10.07;2.33;;;17.80;65.20;;;;;;4994544;28;20050;-81
2023/05/17 11:43:47;;;;;;;9.70;1.65;;;17.40;66.20;;;;;;4996262;28;20046;-80
2023/05/17 11:46:34;;;;;;;9.38;1.88;;;17.80;66.10;;;;;;4995145;28;20050;-80
2023/05/17 11:49:22;;;;;;;12.57;2.53;;;17.40;65.10;;;;;;5011962;28;20148;-80
2023/05/17 11:52:08;;;;;;;12.52;1.77;;;17.70;66.10;;;;;;4996084;28;20750;-81
2023/05/17 11:54:56;;;;;;;18.45;2.25;;;17.20;64.40;;;;;;4982994;28;20108;-78
2023/05/17 11:57:42;;;;;;;8.88;1.63;;;17.10;66.70;;;;;;4994465;28;20057;-78
2023/05/17 12:00:28;;;;;;;13.82;2.05;;;17.00;67.20;;;;;;4994789;28;20063;-87
2023/05/17 12:03:20;;;;;;;11.45;1.92;;;17.00;69.10;;;;;;5012613;28;20510;-85
2023/05/17 12:06:11;;;;;;;10.68;1.63;;;17.00;69.50;;;;;;4975334;28;20062;-86
2023/05/17 12:08:58;;;;;;;16.52;1.70;;;17.60;69.70;;;;;;4975709;28;20402;-88
2023/05/17 12:11:44;;;;;;;7.78;1.73;;;17.60;67.60;;;;;;4991621;28;20085;-87
2023/05/17 12:14:31;;;;;;;14.35;1.88;;;17.50;68.30;;;;;;4976111;28;20109;-88
2023/05/17 12:17:25;;;;;;;6.63;1.70;;;17.30;70.00;;;;;;4991964;28;20048;-87
2023/05/17 12:20:14;;;;;;;10.15;1.80;;;17.10;69.50;;;;;;4980607;28;20057;-87
2023/05/17 12:23:01;;;;;;;14.70;2.58;;;17.10;72.00;;;;;;4987451;28;20053;-85
2023/05/17 12:25:47;;;;;;;10.85;2.10;;;17.30;72.10;;;;;;4973484;28;20053;-90
2023/05/17 12:28:35;;;;;;;11.00;2.30;;;17.10;71.90;;;;;;4987315;28;20054;-85
2023/05/17 12:31:24;;;;;;;10.00;1.60;;;17.10;72.30;;;;;;4994041;28;20494;-86
2023/05/17 12:34:15;;;;;;;9.48;2.25;;;16.70;72.50;;;;;;4995157;28;20057;-87
2023/05/17 12:37:01;;;;;;;13.73;2.15;;;16.80;72.80;;;;;;4981480;28;20053;-87
2023/05/17 12:39:47;;;;;;;6.70;1.33;;;16.90;74.10;;;;;;4994021;28;20049;-88
2023/05/17 12:42:34;;;;;;;9.52;2.00;;;17.00;74.00;;;;;;4994604;28;20072;-88
2023/05/17 12:45:20;;;;;;;6.88;1.52;;;17.30;73.30;;;;;;4981422;28;20592;-86
2023/05/17 12:48:06;;;;;;;9.50;1.65;;;17.60;72.80;;;;;;4995523;28;20555;-88
2023/05/17 12:50:54;;;;;;;10.23;2.60;;;17.70;70.90;;;;;;4995092;28;20057;-87
2023/05/17 12:53:51;;;;;;;10.50;1.65;;;17.40;69.50;;;;;;4994784;28;20053;-83
2023/05/17 12:56:42;;;;;;;7.35;1.63;;;17.30;71.00;;;;;;4983835;28;20061;-85
2023/05/17 12:59:28;;;;;;;7.72;1.30;;;17.10;71.00;;;;;;4961263;28;20046;-84
2023/05/17 13:02:15;;;;;;;8.50;1.50;;;17.20;70.50;;;;;;4976067;28;20064;-85
2023/05/17 13:05:13;;;;;;;7.95;1.55;;;17.30;71.30;;;;;;4975142;28;20072;-82
2023/05/17 13:08:18;;;;;;;6.70;1.48;;;17.30;70.00;;;;;;4974668;28;20124;-86
2023/05/17 13:11:09;;;;;;;9.13;1.48;;;17.30;70.70;;;;;;4973611;28;20155;-87
2023/05/17 13:13:55;;;;;;;9.70;1.60;;;17.50;69.60;;;;;;4960905;28;20055;-85
2023/05/17 13:16:41;;;;;;;10.60;1.88;;;17.00;68.90;;;;;;4960831;28;20085;-87
2023/05/17 13:19:28;;;;;;;15.43;1.67;;;16.70;71.30;;;;;;4974310;28;20073;-88
2023/05/17 13:22:15;;;;;;;11.52;1.98;;;16.30;74.30;;;;;;4974907;28;20097;-86
2023/05/17 13:25:02;;;;;;;15.40;1.95;;;16.30;77.20;;;;;;4960207;28;20137;-86
2023/05/17 13:27:54;;;;;;;10.10;1.88;;;16.80;78.20;;;;;;4973921;28;20050;-85
2023/05/17 13:30:40;;;;;;;12.27;1.92;;;16.40;73.00;;;;;;4974003;28;20054;-88
2023/05/17 13:33:27;;;;;;;10.27;1.42;;;16.20;73.60;;;;;;4959998;28;20064;-87
2023/05/17 13:36:13;;;;;;;8.18;1.92;;;15.90;73.90;;;;;;4973895;28;20161;-84
2023/05/17 13:39:00;;;;;;;8.75;2.47;;;16.00;73.20;;;;;;4974769;28;20085;-85
2023/05/17 13:41:47;;;;;;;5.72;1.33;;;15.90;74.80;;;;;;4948921;28;20100;-88
2023/05/17 13:44:37;;;;;;;12.07;1.58;;;16.20;76.00;;;;;;4991132;28;20077;-87
2023/05/17 13:47:23;;;;;;;9.02;1.98;;;16.40;76.20;;;;;;4960400;28;20101;-81
2023/05/17 13:50:10;;;;;;;11.90;1.90;;;16.30;73.40;;;;;;4972994;28;20065;-83
2023/05/17 13:52:57;;;;;;;6.93;1.30;;;16.30;74.00;;;;;;4960201;28;20050;-84
2023/05/17 13:55:43;;;;;;;7.78;1.33;;;16.30;74.20;;;;;;4992418;28;20081;-82
2023/05/17 13:58:29;;;;;;;8.77;1.67;;;16.50;74.60;;;;;;4992811;28;20498;-84
2023/05/17 14:01:17;;;;;;;8.45;1.60;;;16.80;73.50;;;;;;4979069;28;20065;-84
2023/05/17 14:04:06;;;;;;;9.32;1.67;;;17.10;73.20;;;;;;4979788;28;20123;-87
2023/05/17 14:06:52;;;;;;;8.13;1.20;;;17.00;73.10;;;;;;4992458;28;20054;-83
2023/05/17 14:09:38;;;;;;;7.03;1.30;;;16.70;72.80;;;;;;4993269;28;20046;-81
2023/05/17 14:12:25;;;;;;;6.82;1.23;;;16.20;72.30;;;;;;4980710;28;20054;-82
2023/05/17 14:15:11;;;;;;;14.30;2.22;;;16.30;72.10;;;;;;4992726;28;20502;-84
2023/05/17 14:17:57;;;;;;;10.07;1.70;;;16.60;71.70;;;;;;4991969;28;20562;-83
2023/05/17 14:20:43;;;;;;;7.72;1.50;;;17.00;72.20;;;;;;4996558;28;20141;-89
2023/05/17 14:23:29;;;;;;;7.35;1.83;;;16.90;71.80;;;;;;4993412;28;20089;-84
2023/05/17 14:26:15;;;;;;;8.88;1.90;;;16.50;70.20;;;;;;4980692;28;20062;-90
2023/05/17 14:29:01;;;;;;;5.75;1.38;;;16.20;70.50;;;;;;4994494;28;20148;-88
2023/05/17 14:31:47;;;;;;;8.93;1.30;;;16.10;70.80;;;;;;4982874;28;20058;-90